Nasco Pearl — VRHS2 — position and weather

sailwx.info

Track history (hours):
 
Tides and Currents Weather Stations Pressure Air Temp Water Temp Dewpoint Dewpoint Depression Visibility Wind Speed Wind Dir Waves Ship Positions

Nasco Pearl

Last reported at 2015-Jul-30 06:33 UTC. Time now 2015-Aug-04 05:21 UTC.
Position N 03°12' E 100°37'.

Length 189 m; draft 12 m.

Type: Cargo ship. MMSI: 477982400.

Date/timePositionNaut miles runAvg speedWind from/ knotsBaromVisibWave heightAir tempDewpointWater temp
2015-Jul-30 06:33N 03°12' E 100°37'2311.8
2015-Jul-30 04:34N 02°56' E 100°54'1312.7
2015-Jul-30 03:34N 02°48' E 101°04'2713.3
2015-Jul-30 01:33N 02°36' E 101°28'1212.2
2015-Jul-30 00:33N 02°29' E 101°38'15712.0
2015-Jul-29 11:31N 01°14' E 103°56'1 0.1
2015-Jul-29 01:23N 01°16' E 103°57'  
2015-Jul-22 23:11N 24°18' E 118°54'448 9.0
2015-Jul-20 21:14N 31°06' E 122°23'913.1
2015-Jul-20 20:33N 31°09' E 122°13'1212.1
2015-Jul-20 19:33N 31°15' E 122°01'1010.4
2015-Jul-20 18:33N 31°17' E 121°49'8 7.6
2015-Jul-20 17:32N 31°20' E 121°41'4 3.8
2015-Jul-20 16:33N 31°22' E 121°37'1 1.3
2015-Jul-20 15:33N 31°23' E 121°36'0 0.0
2015-Jul-20 14:30N 31°23' E 121°36'0 0.1
2015-Jul-20 13:24N 31°23' E 121°36'0 0.1
2015-Jul-20 12:33N 31°23' E 121°36'0 0.0
2015-Jul-20 11:33N 31°23' E 121°36'0 0.0
2015-Jul-20 10:30N 31°23' E 121°36'0 0.1
2015-Jul-20 09:33N 31°23' E 121°36'1 0.6
2015-Jul-20 08:33N 31°23' E 121°35'7 7.4
2015-Jul-20 07:33N 31°27' E 121°28'  
Track history (hours):
 
Tides and Currents Weather Stations Pressure Air Temp Water Temp Dewpoint Dewpoint Depression Visibility Wind Speed Wind Dir Waves Ship Positions

Nasco Pearl

Last reported at 2015-Jul-30 06:33 UTC. Time now 2015-Aug-04 05:21 UTC.
Position N 03°12' E 100°37'.

Length 189 m; draft 12 m.

Type: Cargo ship. MMSI: 477982400.

Date/timePositionNaut miles runAvg speedWind from/ knotsBaromVisibWave heightAir tempDewpointWater temp
2015-Jul-30 06:33N 03°12' E 100°37'2311.8
2015-Jul-30 04:34N 02°56' E 100°54'1312.7
2015-Jul-30 03:34N 02°48' E 101°04'2713.3
2015-Jul-30 01:33N 02°36' E 101°28'1212.2
2015-Jul-30 00:33N 02°29' E 101°38'15712.0
2015-Jul-29 11:31N 01°14' E 103°56'1 0.1
2015-Jul-29 01:23N 01°16' E 103°57'  
2015-Jul-22 23:11N 24°18' E 118°54'448 9.0
2015-Jul-20 21:14N 31°06' E 122°23'913.1
2015-Jul-20 20:33N 31°09' E 122°13'1212.1
2015-Jul-20 19:33N 31°15' E 122°01'1010.4
2015-Jul-20 18:33N 31°17' E 121°49'8 7.6
2015-Jul-20 17:32N 31°20' E 121°41'4 3.8
2015-Jul-20 16:33N 31°22' E 121°37'1 1.3
2015-Jul-20 15:33N 31°23' E 121°36'0 0.0
2015-Jul-20 14:30N 31°23' E 121°36'0 0.1
2015-Jul-20 13:24N 31°23' E 121°36'0 0.1
2015-Jul-20 12:33N 31°23' E 121°36'0 0.0
2015-Jul-20 11:33N 31°23' E 121°36'0 0.0
2015-Jul-20 10:30N 31°23' E 121°36'0 0.1
2015-Jul-20 09:33N 31°23' E 121°36'1 0.6
2015-Jul-20 08:33N 31°23' E 121°35'7 7.4
2015-Jul-20 07:33N 31°27' E 121°28'  

Dump ship's entire track history